sensor_id;sensor_type;location;lat;lon;timestamp;temperature;humidity
25825;DHT22;13658;44.534;18.694;2023-07-29T00:00:22;18.60;99.90
25825;DHT22;13658;44.534;18.694;2023-07-29T00:02:48;18.60;99.90
25825;DHT22;13658;44.534;18.694;2023-07-29T00:05:14;18.60;99.90
25825;DHT22;13658;44.534;18.694;2023-07-29T00:07:40;18.50;99.90
25825;DHT22;13658;44.534;18.694;2023-07-29T00:10:06;18.50;99.90
25825;DHT22;13658;44.534;18.694;2023-07-29T00:12:32;18.50;99.90
25825;DHT22;13658;44.534;18.694;2023-07-29T00:14:58;18.50;99.90
25825;DHT22;13658;44.534;18.694;2023-07-29T00:17:24;18.50;99.90
25825;DHT22;13658;44.534;18.694;2023-07-29T00:19:50;18.50;99.90
25825;DHT22;13658;44.534;18.694;2023-07-29T00:22:16;18.50;99.90
25825;DHT22;13658;44.534;18.694;2023-07-29T00:24:42;18.40;99.90
25825;DHT22;13658;44.534;18.694;2023-07-29T00:27:08;18.40;99.90
25825;DHT22;13658;44.534;18.694;2023-07-29T00:29:33;18.50;99.90
25825;DHT22;13658;44.534;18.694;2023-07-29T00:31:59;18.50;99.90
25825;DHT22;13658;44.534;18.694;2023-07-29T00:34:25;18.40;99.90
25825;DHT22;13658;44.534;18.694;2023-07-29T00:36:51;18.40;99.90
25825;DHT22;13658;44.534;18.694;2023-07-29T00:39:18;18.40;99.90
25825;DHT22;13658;44.534;18.694;2023-07-29T00:41:45;18.40;99.90
25825;DHT22;13658;44.534;18.694;2023-07-29T00:44:11;18.40;99.90
25825;DHT22;13658;44.534;18.694;2023-07-29T00:46:38;18.30;99.90
25825;DHT22;13658;44.534;18.694;2023-07-29T00:49:05;18.20;99.90
25825;DHT22;13658;44.534;18.694;2023-07-29T00:51:31;18.10;99.90
25825;DHT22;13658;44.534;18.694;2023-07-29T00:53:57;18.00;99.90
25825;DHT22;13658;44.534;18.694;2023-07-29T00:56:23;18.00;99.90
25825;DHT22;13658;44.534;18.694;2023-07-29T00:58:49;18.00;99.90
25825;DHT22;13658;44.534;18.694;2023-07-29T01:01:17;17.90;99.90
25825;DHT22;13658;44.534;18.694;2023-07-29T01:03:43;17.70;99.90
25825;DHT22;13658;44.534;18.694;2023-07-29T01:09:04;17.60;99.90
25825;DHT22;13658;44.534;18.694;2023-07-29T01:14:55;17.70;99.90
25825;DHT22;13658;44.534;18.694;2023-07-29T01:17:23;17.60;99.90
25825;DHT22;13658;44.534;18.694;2023-07-29T01:22:25;17.60;99.90
25825;DHT22;13658;44.534;18.694;2023-07-29T01:24:51;17.60;99.90
25825;DHT22;13658;44.534;18.694;2023-07-29T01:27:17;17.70;99.90
25825;DHT22;13658;44.534;18.694;2023-07-29T01:29:43;17.70;99.90
25825;DHT22;13658;44.534;18.694;2023-07-29T01:32:56;17.70;99.90
25825;DHT22;13658;44.534;18.694;2023-07-29T01:38:01;17.60;99.90
25825;DHT22;13658;44.534;18.694;2023-07-29T01:40:28;17.70;99.90
25825;DHT22;13658;44.534;18.694;2023-07-29T01:42:56;17.70;99.90
25825;DHT22;13658;44.534;18.694;2023-07-29T01:45:24;17.60;99.90
25825;DHT22;13658;44.534;18.694;2023-07-29T01:47:53;17.60;99.90
25825;DHT22;13658;44.534;18.694;2023-07-29T01:50:20;17.60;99.90
25825;DHT22;13658;44.534;18.694;2023-07-29T01:52:46;17.60;99.90
25825;DHT22;13658;44.534;18.694;2023-07-29T01:55:12;17.60;99.90
25825;DHT22;13658;44.534;18.694;2023-07-29T01:57:38;17.60;99.90
25825;DHT22;13658;44.534;18.694;2023-07-29T02:00:05;17.60;99.90
25825;DHT22;13658;44.534;18.694;2023-07-29T02:02:40;17.60;99.90
25825;DHT22;13658;44.534;18.694;2023-07-29T02:05:06;17.60;99.90
25825;DHT22;13658;44.534;18.694;2023-07-29T02:07:31;17.60;99.90
25825;DHT22;13658;44.534;18.694;2023-07-29T02:09:57;17.60;99.90
25825;DHT22;13658;44.534;18.694;2023-07-29T02:12:24;17.50;99.90
25825;DHT22;13658;44.534;18.694;2023-07-29T02:14:50;17.50;99.90
25825;DHT22;13658;44.534;18.694;2023-07-29T02:17:17;17.50;99.90
25825;DHT22;13658;44.534;18.694;2023-07-29T02:19:43;17.50;99.90
25825;DHT22;13658;44.534;18.694;2023-07-29T02:22:13;17.50;99.90
25825;DHT22;13658;44.534;18.694;2023-07-29T02:24:39;17.40;99.90
25825;DHT22;13658;44.534;18.694;2023-07-29T02:27:06;17.40;99.90
25825;DHT22;13658;44.534;18.694;2023-07-29T02:29:32;17.50;99.90
25825;DHT22;13658;44.534;18.694;2023-07-29T02:32:02;17.50;99.90
25825;DHT22;13658;44.534;18.694;2023-07-29T02:34:28;17.40;99.90
25825;DHT22;13658;44.534;18.694;2023-07-29T02:36:54;17.40;99.90
25825;DHT22;13658;44.534;18.694;2023-07-29T02:39:20;17.40;99.90
25825;DHT22;13658;44.534;18.694;2023-07-29T02:41:46;17.40;99.90
25825;DHT22;13658;44.534;18.694;2023-07-29T02:44:12;17.40;99.90
25825;DHT22;13658;44.534;18.694;2023-07-29T02:46:38;17.40;99.90
25825;DHT22;13658;44.534;18.694;2023-07-29T02:49:04;17.40;99.90
25825;DHT22;13658;44.534;18.694;2023-07-29T02:51:30;17.30;99.90
25825;DHT22;13658;44.534;18.694;2023-07-29T02:53:56;17.30;99.90
25825;DHT22;13658;44.534;18.694;2023-07-29T02:56:23;17.30;99.90
25825;DHT22;13658;44.534;18.694;2023-07-29T02:58:49;17.20;99.90
25825;DHT22;13658;44.534;18.694;2023-07-29T03:01:17;17.20;99.90
25825;DHT22;13658;44.534;18.694;2023-07-29T03:03:43;17.10;99.90
25825;DHT22;13658;44.534;18.694;2023-07-29T03:06:12;17.10;99.90
25825;DHT22;13658;44.534;18.694;2023-07-29T03:08:38;17.00;99.90
25825;DHT22;13658;44.534;18.694;2023-07-29T03:11:07;17.00;99.90
25825;DHT22;13658;44.534;18.694;2023-07-29T03:13:33;17.00;99.90
25825;DHT22;13658;44.534;18.694;2023-07-29T03:16:06;17.00;99.90
25825;DHT22;13658;44.534;18.694;2023-07-29T03:18:32;17.10;99.90
25825;DHT22;13658;44.534;18.694;2023-07-29T03:20:59;17.00;99.90
25825;DHT22;13658;44.534;18.694;2023-07-29T03:23:25;17.00;99.90
25825;DHT22;13658;44.534;18.694;2023-07-29T03:25:51;16.90;99.90
25825;DHT22;13658;44.534;18.694;2023-07-29T03:28:18;16.90;99.90
25825;DHT22;13658;44.534;18.694;2023-07-29T03:30:44;16.90;99.90
25825;DHT22;13658;44.534;18.694;2023-07-29T03:33:10;16.90;99.90
25825;DHT22;13658;44.534;18.694;2023-07-29T03:35:36;16.90;99.90
25825;DHT22;13658;44.534;18.694;2023-07-29T03:38:02;16.80;99.90
25825;DHT22;13658;44.534;18.694;2023-07-29T03:40:28;16.80;99.90
25825;DHT22;13658;44.534;18.694;2023-07-29T03:42:54;16.80;99.90
25825;DHT22;13658;44.534;18.694;2023-07-29T03:45:20;16.80;99.90
25825;DHT22;13658;44.534;18.694;2023-07-29T03:47:46;16.80;99.90
25825;DHT22;13658;44.534;18.694;2023-07-29T03:50:12;16.80;99.90
25825;DHT22;13658;44.534;18.694;2023-07-29T03:52:38;16.70;99.90
25825;DHT22;13658;44.534;18.694;2023-07-29T03:55:04;16.70;99.90
25825;DHT22;13658;44.534;18.694;2023-07-29T03:57:30;16.80;99.90
25825;DHT22;13658;44.534;18.694;2023-07-29T03:59:56;16.70;99.90
25825;DHT22;13658;44.534;18.694;2023-07-29T04:02:22;16.80;99.90
25825;DHT22;13658;44.534;18.694;2023-07-29T04:04:48;16.90;99.90
25825;DHT22;13658;44.534;18.694;2023-07-29T04:07:14;16.90;99.90
25825;DHT22;13658;44.534;18.694;2023-07-29T04:09:40;16.90;99.90
25825;DHT22;13658;44.534;18.694;2023-07-29T04:12:06;17.00;99.90
25825;DHT22;13658;44.534;18.694;2023-07-29T04:14:32;17.00;99.90
25825;DHT22;13658;44.534;18.694;2023-07-29T04:16:58;17.00;99.90
25825;DHT22;13658;44.534;18.694;2023-07-29T04:19:24;17.10;99.90
25825;DHT22;13658;44.534;18.694;2023-07-29T04:21:50;17.10;99.90
25825;DHT22;13658;44.534;18.694;2023-07-29T04:24:16;17.10;99.90
25825;DHT22;13658;44.534;18.694;2023-07-29T04:26:42;17.10;99.90
25825;DHT22;13658;44.534;18.694;2023-07-29T04:29:08;17.10;99.90
25825;DHT22;13658;44.534;18.694;2023-07-29T04:31:34;17.20;99.90
25825;DHT22;13658;44.534;18.694;2023-07-29T04:34:00;17.30;99.90
25825;DHT22;13658;44.534;18.694;2023-07-29T04:36:26;17.40;99.90
25825;DHT22;13658;44.534;18.694;2023-07-29T04:38:51;17.40;99.90
25825;DHT22;13658;44.534;18.694;2023-07-29T04:41:17;17.60;99.90
25825;DHT22;13658;44.534;18.694;2023-07-29T04:43:43;17.70;99.90
25825;DHT22;13658;44.534;18.694;2023-07-29T04:46:09;17.80;99.90
25825;DHT22;13658;44.534;18.694;2023-07-29T04:48:35;17.90;99.90
25825;DHT22;13658;44.534;18.694;2023-07-29T04:51:01;18.00;99.90
25825;DHT22;13658;44.534;18.694;2023-07-29T04:53:27;18.00;99.90
25825;DHT22;13658;44.534;18.694;2023-07-29T04:55:53;18.10;99.90
25825;DHT22;13658;44.534;18.694;2023-07-29T04:58:19;18.10;99.90
25825;DHT22;13658;44.534;18.694;2023-07-29T05:00:47;18.30;99.90
25825;DHT22;13658;44.534;18.694;2023-07-29T05:03:12;18.50;99.90
25825;DHT22;13658;44.534;18.694;2023-07-29T05:05:40;18.70;99.90
25825;DHT22;13658;44.534;18.694;2023-07-29T05:08:06;18.90;99.90
25825;DHT22;13658;44.534;18.694;2023-07-29T05:10:34;19.10;99.90
25825;DHT22;13658;44.534;18.694;2023-07-29T05:13:00;19.10;99.90
25825;DHT22;13658;44.534;18.694;2023-07-29T05:15:26;19.10;99.90
25825;DHT22;13658;44.534;18.694;2023-07-29T05:17:52;19.10;99.90
25825;DHT22;13658;44.534;18.694;2023-07-29T05:20:18;19.10;99.90
25825;DHT22;13658;44.534;18.694;2023-07-29T05:22:44;19.20;99.90
25825;DHT22;13658;44.534;18.694;2023-07-29T05:25:10;19.30;99.90
25825;DHT22;13658;44.534;18.694;2023-07-29T05:27:36;19.20;99.90
25825;DHT22;13658;44.534;18.694;2023-07-29T05:30:02;19.20;99.90
25825;DHT22;13658;44.534;18.694;2023-07-29T05:32:29;19.20;99.90
25825;DHT22;13658;44.534;18.694;2023-07-29T05:34:55;19.20;99.90
25825;DHT22;13658;44.534;18.694;2023-07-29T05:37:22;19.30;99.90
25825;DHT22;13658;44.534;18.694;2023-07-29T05:39:48;19.50;99.90
25825;DHT22;13658;44.534;18.694;2023-07-29T05:42:14;19.40;99.90
25825;DHT22;13658;44.534;18.694;2023-07-29T05:44:41;19.50;99.90
25825;DHT22;13658;44.534;18.694;2023-07-29T05:47:06;19.60;99.90
25825;DHT22;13658;44.534;18.694;2023-07-29T05:49:32;19.70;99.90
25825;DHT22;13658;44.534;18.694;2023-07-29T05:51:59;19.90;99.90
25825;DHT22;13658;44.534;18.694;2023-07-29T05:54:25;20.10;99.90
25825;DHT22;13658;44.534;18.694;2023-07-29T05:56:51;20.20;99.90
25825;DHT22;13658;44.534;18.694;2023-07-29T05:59:17;20.20;99.90
25825;DHT22;13658;44.534;18.694;2023-07-29T06:01:43;20.30;99.90
25825;DHT22;13658;44.534;18.694;2023-07-29T06:04:09;20.30;99.90
25825;DHT22;13658;44.534;18.694;2023-07-29T06:06:35;20.30;99.90
25825;DHT22;13658;44.534;18.694;2023-07-29T06:09:00;20.40;99.90
25825;DHT22;13658;44.534;18.694;2023-07-29T06:11:26;20.40;99.90
25825;DHT22;13658;44.534;18.694;2023-07-29T06:13:52;20.50;99.90
25825;DHT22;13658;44.534;18.694;2023-07-29T06:16:18;20.60;99.90
25825;DHT22;13658;44.534;18.694;2023-07-29T06:18:45;20.70;99.90
25825;DHT22;13658;44.534;18.694;2023-07-29T06:21:11;20.90;99.90
25825;DHT22;13658;44.534;18.694;2023-07-29T06:23:43;21.00;99.90
25825;DHT22;13658;44.534;18.694;2023-07-29T06:26:09;21.10;99.90
25825;DHT22;13658;44.534;18.694;2023-07-29T06:28:35;21.70;99.90
25825;DHT22;13658;44.534;18.694;2023-07-29T06:31:01;22.00;99.90
25825;DHT22;13658;44.534;18.694;2023-07-29T06:33:27;22.20;99.90
25825;DHT22;13658;44.534;18.694;2023-07-29T06:35:53;22.50;99.90
25825;DHT22;13658;44.534;18.694;2023-07-29T06:38:19;22.90;99.90
25825;DHT22;13658;44.534;18.694;2023-07-29T06:40:48;23.40;99.90
25825;DHT22;13658;44.534;18.694;2023-07-29T06:43:14;24.30;99.90
25825;DHT22;13658;44.534;18.694;2023-07-29T06:45:40;25.10;99.90
25825;DHT22;13658;44.534;18.694;2023-07-29T06:48:06;25.40;99.90
25825;DHT22;13658;44.534;18.694;2023-07-29T06:50:31;25.50;99.90
25825;DHT22;13658;44.534;18.694;2023-07-29T06:52:57;25.70;99.90
25825;DHT22;13658;44.534;18.694;2023-07-29T06:55:25;25.50;99.90
25825;DHT22;13658;44.534;18.694;2023-07-29T06:57:51;25.60;99.90
25825;DHT22;13658;44.534;18.694;2023-07-29T07:00:17;25.60;99.90
25825;DHT22;13658;44.534;18.694;2023-07-29T07:02:43;26.20;99.90
25825;DHT22;13658;44.534;18.694;2023-07-29T07:05:09;26.90;99.90
25825;DHT22;13658;44.534;18.694;2023-07-29T07:07:35;27.60;99.90
25825;DHT22;13658;44.534;18.694;2023-07-29T07:10:01;27.70;99.90
25825;DHT22;13658;44.534;18.694;2023-07-29T07:12:27;28.20;99.90
25825;DHT22;13658;44.534;18.694;2023-07-29T07:14:53;28.40;99.90
25825;DHT22;13658;44.534;18.694;2023-07-29T07:17:18;28.70;99.90
25825;DHT22;13658;44.534;18.694;2023-07-29T07:19:44;29.30;99.90
25825;DHT22;13658;44.534;18.694;2023-07-29T07:22:12;29.70;99.90
25825;DHT22;13658;44.534;18.694;2023-07-29T07:24:38;29.50;99.90
25825;DHT22;13658;44.534;18.694;2023-07-29T07:27:04;29.20;99.90
25825;DHT22;13658;44.534;18.694;2023-07-29T07:29:30;29.30;99.90
25825;DHT22;13658;44.534;18.694;2023-07-29T07:31:56;29.60;99.90
25825;DHT22;13658;44.534;18.694;2023-07-29T07:34:22;30.50;99.90
25825;DHT22;13658;44.534;18.694;2023-07-29T07:36:49;30.70;99.90
25825;DHT22;13658;44.534;18.694;2023-07-29T07:39:15;30.30;99.90
25825;DHT22;13658;44.534;18.694;2023-07-29T07:41:41;30.80;99.90
25825;DHT22;13658;44.534;18.694;2023-07-29T07:44:08;30.80;99.90
25825;DHT22;13658;44.534;18.694;2023-07-29T07:46:34;31.10;99.90
25825;DHT22;13658;44.534;18.694;2023-07-29T07:49:00;31.80;99.90
25825;DHT22;13658;44.534;18.694;2023-07-29T07:51:26;32.10;99.90
25825;DHT22;13658;44.534;18.694;2023-07-29T07:53:52;32.70;99.90
25825;DHT22;13658;44.534;18.694;2023-07-29T07:56:18;33.20;99.90
25825;DHT22;13658;44.534;18.694;2023-07-29T07:58:43;33.70;99.90
25825;DHT22;13658;44.534;18.694;2023-07-29T08:01:09;33.70;99.90
25825;DHT22;13658;44.534;18.694;2023-07-29T08:03:36;34.00;99.90
25825;DHT22;13658;44.534;18.694;2023-07-29T08:06:02;34.40;99.90
25825;DHT22;13658;44.534;18.694;2023-07-29T08:08:28;35.10;99.90
25825;DHT22;13658;44.534;18.694;2023-07-29T08:10:56;35.00;99.90
25825;DHT22;13658;44.534;18.694;2023-07-29T08:13:23;35.50;99.90
25825;DHT22;13658;44.534;18.694;2023-07-29T08:15:50;35.50;99.90
25825;DHT22;13658;44.534;18.694;2023-07-29T08:18:16;35.40;99.90
25825;DHT22;13658;44.534;18.694;2023-07-29T08:20:56;35.10;99.90
25825;DHT22;13658;44.534;18.694;2023-07-29T08:23:27;35.60;99.90
25825;DHT22;13658;44.534;18.694;2023-07-29T08:25:54;35.50;99.90
25825;DHT22;13658;44.534;18.694;2023-07-29T08:28:23;36.00;99.90
25825;DHT22;13658;44.534;18.694;2023-07-29T08:30:49;36.50;99.90
25825;DHT22;13658;44.534;18.694;2023-07-29T08:33:15;36.10;99.90
25825;DHT22;13658;44.534;18.694;2023-07-29T08:35:41;35.80;99.90
25825;DHT22;13658;44.534;18.694;2023-07-29T08:38:07;36.10;99.90
25825;DHT22;13658;44.534;18.694;2023-07-29T08:40:34;36.30;99.90
25825;DHT22;13658;44.534;18.694;2023-07-29T08:43:04;36.00;99.90
25825;DHT22;13658;44.534;18.694;2023-07-29T08:45:34;36.50;99.90
25825;DHT22;13658;44.534;18.694;2023-07-29T08:48:04;36.30;99.90
25825;DHT22;13658;44.534;18.694;2023-07-29T08:50:33;36.50;99.90
25825;DHT22;13658;44.534;18.694;2023-07-29T08:53:05;37.10;99.90
25825;DHT22;13658;44.534;18.694;2023-07-29T08:55:32;37.40;99.90
25825;DHT22;13658;44.534;18.694;2023-07-29T08:58:00;37.40;99.90
25825;DHT22;13658;44.534;18.694;2023-07-29T09:00:27;38.00;99.90
25825;DHT22;13658;44.534;18.694;2023-07-29T09:02:54;38.50;99.90
25825;DHT22;13658;44.534;18.694;2023-07-29T09:05:21;38.50;99.90
25825;DHT22;13658;44.534;18.694;2023-07-29T09:07:48;38.30;99.90
25825;DHT22;13658;44.534;18.694;2023-07-29T09:10:15;38.40;99.90
25825;DHT22;13658;44.534;18.694;2023-07-29T09:12:42;38.80;99.90
25825;DHT22;13658;44.534;18.694;2023-07-29T09:15:08;38.60;99.90
25825;DHT22;13658;44.534;18.694;2023-07-29T09:17:35;38.50;99.90
25825;DHT22;13658;44.534;18.694;2023-07-29T09:20:01;37.90;99.90
25825;DHT22;13658;44.534;18.694;2023-07-29T09:22:27;37.90;99.90
25825;DHT22;13658;44.534;18.694;2023-07-29T09:24:53;38.30;99.90
25825;DHT22;13658;44.534;18.694;2023-07-29T09:27:29;39.00;99.90
25825;DHT22;13658;44.534;18.694;2023-07-29T09:29:57;38.20;99.90
25825;DHT22;13658;44.534;18.694;2023-07-29T09:32:24;37.90;99.90
25825;DHT22;13658;44.534;18.694;2023-07-29T09:34:51;37.30;99.90
25825;DHT22;13658;44.534;18.694;2023-07-29T09:37:21;36.70;99.90
25825;DHT22;13658;44.534;18.694;2023-07-29T09:39:48;36.80;99.90
25825;DHT22;13658;44.534;18.694;2023-07-29T09:42:19;37.50;99.90
25825;DHT22;13658;44.534;18.694;2023-07-29T09:44:46;37.70;99.90
25825;DHT22;13658;44.534;18.694;2023-07-29T09:47:22;38.20;99.90
25825;DHT22;13658;44.534;18.694;2023-07-29T09:49:49;37.70;99.90
25825;DHT22;13658;44.534;18.694;2023-07-29T09:52:22;36.70;99.90
25825;DHT22;13658;44.534;18.694;2023-07-29T09:54:48;37.10;99.90
25825;DHT22;13658;44.534;18.694;2023-07-29T09:57:16;37.60;99.90
25825;DHT22;13658;44.534;18.694;2023-07-29T09:59:52;38.00;99.90
25825;DHT22;13658;44.534;18.694;2023-07-29T10:02:19;38.70;99.90
25825;DHT22;13658;44.534;18.694;2023-07-29T10:04:47;39.10;99.90
25825;DHT22;13658;44.534;18.694;2023-07-29T10:07:13;38.70;99.90
25825;DHT22;13658;44.534;18.694;2023-07-29T10:09:40;38.90;99.90
25825;DHT22;13658;44.534;18.694;2023-07-29T10:12:07;39.00;99.90
25825;DHT22;13658;44.534;18.694;2023-07-29T10:14:33;39.10;99.90
25825;DHT22;13658;44.534;18.694;2023-07-29T10:17:00;39.30;99.90
25825;DHT22;13658;44.534;18.694;2023-07-29T10:19:26;39.20;99.90
25825;DHT22;13658;44.534;18.694;2023-07-29T10:21:52;39.10;99.90
25825;DHT22;13658;44.534;18.694;2023-07-29T10:24:24;38.60;99.90
25825;DHT22;13658;44.534;18.694;2023-07-29T10:26:57;38.70;99.90
25825;DHT22;13658;44.534;18.694;2023-07-29T10:29:24;39.10;99.90
25825;DHT22;13658;44.534;18.694;2023-07-29T10:31:53;38.90;99.90
25825;DHT22;13658;44.534;18.694;2023-07-29T10:34:21;39.20;99.90
25825;DHT22;13658;44.534;18.694;2023-07-29T10:36:49;38.70;99.90
25825;DHT22;13658;44.534;18.694;2023-07-29T10:39:15;38.70;99.90
25825;DHT22;13658;44.534;18.694;2023-07-29T10:41:57;38.80;99.90
25825;DHT22;13658;44.534;18.694;2023-07-29T10:49:44;39.50;99.90
25825;DHT22;13658;44.534;18.694;2023-07-29T10:52:15;40.20;99.90
25825;DHT22;13658;44.534;18.694;2023-07-29T10:54:44;40.60;99.90
25825;DHT22;13658;44.534;18.694;2023-07-29T10:57:15;39.90;99.90
25825;DHT22;13658;44.534;18.694;2023-07-29T10:59:54;38.70;99.90
25825;DHT22;13658;44.534;18.694;2023-07-29T11:02:36;38.00;99.90
25825;DHT22;13658;44.534;18.694;2023-07-29T11:05:15;36.30;99.90
25825;DHT22;13658;44.534;18.694;2023-07-29T11:07:46;35.70;99.90
25825;DHT22;13658;44.534;18.694;2023-07-29T11:10:13;34.70;99.90
25825;DHT22;13658;44.534;18.694;2023-07-29T11:15:16;33.70;99.90
25825;DHT22;13658;44.534;18.694;2023-07-29T11:17:44;33.60;99.90
25825;DHT22;13658;44.534;18.694;2023-07-29T11:20:11;33.30;99.90
25825;DHT22;13658;44.534;18.694;2023-07-29T11:22:38;33.20;99.90
25825;DHT22;13658;44.534;18.694;2023-07-29T11:25:08;32.80;99.90
25825;DHT22;13658;44.534;18.694;2023-07-29T11:27:34;32.70;99.90
25825;DHT22;13658;44.534;18.694;2023-07-29T11:30:02;32.50;99.90
25825;DHT22;13658;44.534;18.694;2023-07-29T11:32:31;32.30;99.90
25825;DHT22;13658;44.534;18.694;2023-07-29T11:35:05;32.40;99.90
25825;DHT22;13658;44.534;18.694;2023-07-29T11:37:34;32.30;99.90
25825;DHT22;13658;44.534;18.694;2023-07-29T11:40:00;32.00;99.90
25825;DHT22;13658;44.534;18.694;2023-07-29T11:42:27;32.00;99.90
25825;DHT22;13658;44.534;18.694;2023-07-29T11:44:56;32.00;99.90
25825;DHT22;13658;44.534;18.694;2023-07-29T11:47:22;32.00;99.90
25825;DHT22;13658;44.534;18.694;2023-07-29T11:49:49;32.00;99.90
25825;DHT22;13658;44.534;18.694;2023-07-29T11:52:15;31.90;99.90
25825;DHT22;13658;44.534;18.694;2023-07-29T11:54:45;31.90;99.90
25825;DHT22;13658;44.534;18.694;2023-07-29T11:57:12;31.80;99.90
25825;DHT22;13658;44.534;18.694;2023-07-29T11:59:39;31.80;99.90
25825;DHT22;13658;44.534;18.694;2023-07-29T12:02:11;31.60;99.90
25825;DHT22;13658;44.534;18.694;2023-07-29T12:04:39;31.40;99.90
25825;DHT22;13658;44.534;18.694;2023-07-29T12:07:06;31.50;99.90
25825;DHT22;13658;44.534;18.694;2023-07-29T12:09:34;31.50;99.90
25825;DHT22;13658;44.534;18.694;2023-07-29T12:12:01;31.30;99.90
25825;DHT22;13658;44.534;18.694;2023-07-29T12:14:31;31.20;99.90
25825;DHT22;13658;44.534;18.694;2023-07-29T12:17:00;31.20;99.90
25825;DHT22;13658;44.534;18.694;2023-07-29T12:19:36;31.20;99.90
25825;DHT22;13658;44.534;18.694;2023-07-29T12:22:04;31.20;99.90
25825;DHT22;13658;44.534;18.694;2023-07-29T12:24:32;31.20;99.90
25825;DHT22;13658;44.534;18.694;2023-07-29T12:26:59;31.10;99.90
25825;DHT22;13658;44.534;18.694;2023-07-29T12:29:26;31.20;99.90
25825;DHT22;13658;44.534;18.694;2023-07-29T12:32:00;31.30;99.90
25825;DHT22;13658;44.534;18.694;2023-07-29T12:34:27;31.20;99.90
25825;DHT22;13658;44.534;18.694;2023-07-29T12:36:55;31.10;99.90
25825;DHT22;13658;44.534;18.694;2023-07-29T12:39:26;31.10;99.90
25825;DHT22;13658;44.534;18.694;2023-07-29T12:41:57;31.00;99.90
25825;DHT22;13658;44.534;18.694;2023-07-29T12:44:25;30.90;99.90
25825;DHT22;13658;44.534;18.694;2023-07-29T12:46:52;30.90;99.90
25825;DHT22;13658;44.534;18.694;2023-07-29T12:49:18;30.90;99.90
25825;DHT22;13658;44.534;18.694;2023-07-29T12:51:45;30.90;99.90
25825;DHT22;13658;44.534;18.694;2023-07-29T12:54:11;30.90;99.90
25825;DHT22;13658;44.534;18.694;2023-07-29T12:56:37;31.00;99.90
25825;DHT22;13658;44.534;18.694;2023-07-29T12:59:03;31.00;99.90
25825;DHT22;13658;44.534;18.694;2023-07-29T13:01:29;31.10;99.90
25825;DHT22;13658;44.534;18.694;2023-07-29T13:03:55;31.10;99.90
25825;DHT22;13658;44.534;18.694;2023-07-29T13:06:22;31.10;99.90
25825;DHT22;13658;44.534;18.694;2023-07-29T13:08:48;31.10;99.90
25825;DHT22;13658;44.534;18.694;2023-07-29T13:11:15;31.00;99.90
25825;DHT22;13658;44.534;18.694;2023-07-29T13:13:41;31.00;99.90
25825;DHT22;13658;44.534;18.694;2023-07-29T13:16:07;30.90;99.90
25825;DHT22;13658;44.534;18.694;2023-07-29T13:18:34;30.80;99.90
25825;DHT22;13658;44.534;18.694;2023-07-29T13:21:00;30.90;99.90
25825;DHT22;13658;44.534;18.694;2023-07-29T13:23:26;30.90;99.90
25825;DHT22;13658;44.534;18.694;2023-07-29T13:25:52;30.90;99.90
25825;DHT22;13658;44.534;18.694;2023-07-29T13:28:19;30.80;99.90
25825;DHT22;13658;44.534;18.694;2023-07-29T13:30:45;30.90;99.90
25825;DHT22;13658;44.534;18.694;2023-07-29T13:33:11;30.80;99.90
25825;DHT22;13658;44.534;18.694;2023-07-29T13:35:37;30.80;99.90
25825;DHT22;13658;44.534;18.694;2023-07-29T13:38:03;30.80;99.90
25825;DHT22;13658;44.534;18.694;2023-07-29T13:40:29;30.60;99.90
25825;DHT22;13658;44.534;18.694;2023-07-29T13:42:56;30.50;99.90
25825;DHT22;13658;44.534;18.694;2023-07-29T13:45:22;30.40;99.90
25825;DHT22;13658;44.534;18.694;2023-07-29T13:47:49;30.40;99.90
25825;DHT22;13658;44.534;18.694;2023-07-29T13:50:16;30.30;99.90
25825;DHT22;13658;44.534;18.694;2023-07-29T13:52:43;30.40;99.90
25825;DHT22;13658;44.534;18.694;2023-07-29T13:55:10;30.30;99.90
25825;DHT22;13658;44.534;18.694;2023-07-29T13:57:37;30.30;99.90
25825;DHT22;13658;44.534;18.694;2023-07-29T14:00:07;30.30;99.90
25825;DHT22;13658;44.534;18.694;2023-07-29T14:02:39;30.30;99.90
25825;DHT22;13658;44.534;18.694;2023-07-29T14:05:05;30.20;99.90
25825;DHT22;13658;44.534;18.694;2023-07-29T14:07:32;30.30;99.90
25825;DHT22;13658;44.534;18.694;2023-07-29T14:09:58;30.30;99.90
25825;DHT22;13658;44.534;18.694;2023-07-29T14:12:24;30.30;99.90
25825;DHT22;13658;44.534;18.694;2023-07-29T14:14:51;30.20;99.90
25825;DHT22;13658;44.534;18.694;2023-07-29T14:17:17;30.10;99.90
25825;DHT22;13658;44.534;18.694;2023-07-29T14:19:43;30.10;99.90
25825;DHT22;13658;44.534;18.694;2023-07-29T14:22:09;30.10;99.90
25825;DHT22;13658;44.534;18.694;2023-07-29T14:24:35;30.00;99.90
25825;DHT22;13658;44.534;18.694;2023-07-29T14:27:01;30.00;99.90
25825;DHT22;13658;44.534;18.694;2023-07-29T14:29:28;30.00;99.90
25825;DHT22;13658;44.534;18.694;2023-07-29T14:35:37;30.10;99.90
25825;DHT22;13658;44.534;18.694;2023-07-29T14:38:04;30.00;99.90
25825;DHT22;13658;44.534;18.694;2023-07-29T14:40:30;30.00;99.90
25825;DHT22;13658;44.534;18.694;2023-07-29T14:42:55;30.00;99.90
25825;DHT22;13658;44.534;18.694;2023-07-29T14:45:21;30.00;99.90
25825;DHT22;13658;44.534;18.694;2023-07-29T14:47:48;30.00;99.90
25825;DHT22;13658;44.534;18.694;2023-07-29T14:50:13;30.10;99.90
25825;DHT22;13658;44.534;18.694;2023-07-29T14:52:39;30.10;99.90
25825;DHT22;13658;44.534;18.694;2023-07-29T14:55:06;30.10;99.90
25825;DHT22;13658;44.534;18.694;2023-07-29T14:57:32;30.10;99.90
25825;DHT22;13658;44.534;18.694;2023-07-29T14:59:58;30.10;99.90
25825;DHT22;13658;44.534;18.694;2023-07-29T15:02:24;30.10;99.90
25825;DHT22;13658;44.534;18.694;2023-07-29T15:04:51;30.00;99.90
25825;DHT22;13658;44.534;18.694;2023-07-29T15:07:17;30.00;99.90
25825;DHT22;13658;44.534;18.694;2023-07-29T15:09:43;30.00;99.90
25825;DHT22;13658;44.534;18.694;2023-07-29T15:12:09;29.90;99.90
25825;DHT22;13658;44.534;18.694;2023-07-29T15:14:34;29.80;99.90
25825;DHT22;13658;44.534;18.694;2023-07-29T15:17:00;29.80;99.90
25825;DHT22;13658;44.534;18.694;2023-07-29T15:19:26;29.80;99.90
25825;DHT22;13658;44.534;18.694;2023-07-29T15:21:52;29.80;99.90
25825;DHT22;13658;44.534;18.694;2023-07-29T15:24:18;29.80;99.90
25825;DHT22;13658;44.534;18.694;2023-07-29T15:26:44;29.80;99.90
25825;DHT22;13658;44.534;18.694;2023-07-29T15:29:10;29.80;99.90
25825;DHT22;13658;44.534;18.694;2023-07-29T15:31:36;29.80;99.90
25825;DHT22;13658;44.534;18.694;2023-07-29T15:34:02;29.80;99.90
25825;DHT22;13658;44.534;18.694;2023-07-29T15:36:28;29.80;99.90